sensor_id;sensor_type;location;lat;lon;timestamp;pressure;altitude;pressure_sealevel;temperature;humidity
60465;BME280;46314;52.392;9.758;2022-10-16T00:01:06;100334.72;;;16.39;63.72
60465;BME280;46314;52.392;9.758;2022-10-16T00:03:33;100332.75;;;16.27;64.08
60465;BME280;46314;52.392;9.758;2022-10-16T00:06:00;100332.47;;;16.20;64.29
60465;BME280;46314;52.392;9.758;2022-10-16T00:08:27;100351.84;;;16.25;64.02
60465;BME280;46314;52.392;9.758;2022-10-16T00:10:59;100353.09;;;16.03;64.68
60465;BME280;46314;52.392;9.758;2022-10-16T00:13:28;100358.41;;;15.83;65.00
60465;BME280;46314;52.392;9.758;2022-10-16T00:15:55;100364.34;;;15.82;64.71
60465;BME280;46314;52.392;9.758;2022-10-16T00:18:22;100354.78;;;15.83;64.45
60465;BME280;46314;52.392;9.758;2022-10-16T00:20:48;100347.44;;;16.24;63.04
60465;BME280;46314;52.392;9.758;2022-10-16T00:23:15;100359.69;;;16.44;63.32
60465;BME280;46314;52.392;9.758;2022-10-16T00:25:41;100354.66;;;16.37;62.71
60465;BME280;46314;52.392;9.758;2022-10-16T00:28:08;100353.50;;;16.26;62.63
60465;BME280;46314;52.392;9.758;2022-10-16T00:30:37;100359.56;;;16.40;62.50
60465;BME280;46314;52.392;9.758;2022-10-16T00:33:04;100373.59;;;15.95;64.11
60465;BME280;46314;52.392;9.758;2022-10-16T00:35:30;100362.59;;;16.35;62.20
60465;BME280;46314;52.392;9.758;2022-10-16T00:37:57;100364.09;;;16.20;61.88
60465;BME280;46314;52.392;9.758;2022-10-16T00:40:23;100370.25;;;16.14;62.90
60465;BME280;46314;52.392;9.758;2022-10-16T00:42:50;100378.81;;;15.84;64.45
60465;BME280;46314;52.392;9.758;2022-10-16T00:45:16;100382.91;;;15.99;63.72
60465;BME280;46314;52.392;9.758;2022-10-16T00:47:45;100378.50;;;15.98;63.63
60465;BME280;46314;52.392;9.758;2022-10-16T00:50:16;100374.16;;;15.46;65.01
60465;BME280;46314;52.392;9.758;2022-10-16T00:52:46;100376.50;;;15.98;63.66
60465;BME280;46314;52.392;9.758;2022-10-16T00:55:14;100375.59;;;16.06;63.24
60465;BME280;46314;52.392;9.758;2022-10-16T00:57:41;100380.44;;;16.18;62.93
60465;BME280;46314;52.392;9.758;2022-10-16T01:00:10;100379.75;;;15.88;64.82
60465;BME280;46314;52.392;9.758;2022-10-16T01:02:37;100387.25;;;15.54;65.04
60465;BME280;46314;52.392;9.758;2022-10-16T01:05:06;100385.63;;;15.53;65.68
60465;BME280;46314;52.392;9.758;2022-10-16T01:07:40;100384.19;;;15.89;64.60
60465;BME280;46314;52.392;9.758;2022-10-16T01:10:16;100381.00;;;16.12;64.02
60465;BME280;46314;52.392;9.758;2022-10-16T01:12:50;100381.69;;;16.08;64.72
60465;BME280;46314;52.392;9.758;2022-10-16T01:15:22;100382.34;;;16.05;65.04
60465;BME280;46314;52.392;9.758;2022-10-16T01:17:55;100381.34;;;16.10;65.45
60465;BME280;46314;52.392;9.758;2022-10-16T01:20:27;100369.88;;;16.03;65.50
60465;BME280;46314;52.392;9.758;2022-10-16T01:23:05;100365.38;;;16.23;65.31
60465;BME280;46314;52.392;9.758;2022-10-16T01:25:49;100374.72;;;16.15;65.38
60465;BME280;46314;52.392;9.758;2022-10-16T01:28:27;100392.44;;;16.19;65.80
60465;BME280;46314;52.392;9.758;2022-10-16T01:30:58;100392.69;;;16.26;65.81
60465;BME280;46314;52.392;9.758;2022-10-16T01:33:28;100396.38;;;16.18;66.14
60465;BME280;46314;52.392;9.758;2022-10-16T01:36:00;100392.03;;;16.54;65.20
60465;BME280;46314;52.392;9.758;2022-10-16T01:38:32;100388.34;;;16.28;66.00
60465;BME280;46314;52.392;9.758;2022-10-16T01:41:02;100396.72;;;16.16;66.54
60465;BME280;46314;52.392;9.758;2022-10-16T01:43:35;100398.03;;;15.85;67.38
60465;BME280;46314;52.392;9.758;2022-10-16T01:46:02;100406.25;;;16.03;67.40
60465;BME280;46314;52.392;9.758;2022-10-16T01:48:29;100403.13;;;16.04;67.79
60465;BME280;46314;52.392;9.758;2022-10-16T01:51:03;100402.31;;;16.16;66.76
60465;BME280;46314;52.392;9.758;2022-10-16T01:53:32;100401.25;;;15.75;68.43
60465;BME280;46314;52.392;9.758;2022-10-16T01:56:00;100399.28;;;16.09;68.06
60465;BME280;46314;52.392;9.758;2022-10-16T01:58:29;100401.53;;;16.28;67.49
60465;BME280;46314;52.392;9.758;2022-10-16T02:00:57;100403.72;;;16.10;68.20
60465;BME280;46314;52.392;9.758;2022-10-16T02:03:24;100393.97;;;15.95;68.63
60465;BME280;46314;52.392;9.758;2022-10-16T02:05:53;100402.25;;;16.37;67.73
60465;BME280;46314;52.392;9.758;2022-10-16T02:08:21;100401.63;;;16.19;68.35
60465;BME280;46314;52.392;9.758;2022-10-16T02:10:49;100402.69;;;16.15;68.09
60465;BME280;46314;52.392;9.758;2022-10-16T02:13:19;100401.09;;;16.38;67.29
60465;BME280;46314;52.392;9.758;2022-10-16T02:15:48;100402.72;;;16.27;68.21
60465;BME280;46314;52.392;9.758;2022-10-16T02:18:16;100413.72;;;16.11;68.69
60465;BME280;46314;52.392;9.758;2022-10-16T02:20:45;100424.56;;;16.13;68.80
60465;BME280;46314;52.392;9.758;2022-10-16T02:23:19;100413.66;;;16.32;67.85
60465;BME280;46314;52.392;9.758;2022-10-16T02:25:48;100417.59;;;15.64;70.44
60465;BME280;46314;52.392;9.758;2022-10-16T02:28:19;100425.91;;;15.73;70.78
60465;BME280;46314;52.392;9.758;2022-10-16T02:30:49;100425.25;;;15.97;69.62
60465;BME280;46314;52.392;9.758;2022-10-16T02:33:19;100437.75;;;15.79;70.08
60465;BME280;46314;52.392;9.758;2022-10-16T02:35:48;100435.66;;;15.67;70.63
60465;BME280;46314;52.392;9.758;2022-10-16T02:38:16;100426.94;;;15.89;69.96
60465;BME280;46314;52.392;9.758;2022-10-16T02:40:44;100429.72;;;15.68;70.85
60465;BME280;46314;52.392;9.758;2022-10-16T02:43:12;100415.72;;;15.77;70.44
60465;BME280;46314;52.392;9.758;2022-10-16T02:45:39;100414.13;;;15.88;70.40
60465;BME280;46314;52.392;9.758;2022-10-16T02:48:06;100415.50;;;16.16;69.36
60465;BME280;46314;52.392;9.758;2022-10-16T02:50:34;100420.06;;;16.20;69.48
60465;BME280;46314;52.392;9.758;2022-10-16T02:53:00;100423.84;;;16.37;68.99
60465;BME280;46314;52.392;9.758;2022-10-16T02:55:27;100421.78;;;16.13;69.37
60465;BME280;46314;52.392;9.758;2022-10-16T02:57:54;100430.47;;;16.32;68.95
60465;BME280;46314;52.392;9.758;2022-10-16T03:00:21;100430.97;;;16.01;69.79
60465;BME280;46314;52.392;9.758;2022-10-16T03:02:47;100429.72;;;15.47;71.34
60465;BME280;46314;52.392;9.758;2022-10-16T03:05:14;100419.44;;;15.18;72.61
60465;BME280;46314;52.392;9.758;2022-10-16T03:07:42;100422.78;;;15.53;71.39
60465;BME280;46314;52.392;9.758;2022-10-16T03:10:08;100420.75;;;15.63;71.53
60465;BME280;46314;52.392;9.758;2022-10-16T03:12:35;100425.19;;;15.64;71.80
60465;BME280;46314;52.392;9.758;2022-10-16T03:15:04;100422.25;;;15.60;72.25
60465;BME280;46314;52.392;9.758;2022-10-16T03:17:31;100424.59;;;15.70;71.97
60465;BME280;46314;52.392;9.758;2022-10-16T03:19:58;100438.41;;;15.76;71.89
60465;BME280;46314;52.392;9.758;2022-10-16T03:22:24;100439.31;;;15.88;71.01
60465;BME280;46314;52.392;9.758;2022-10-16T03:24:52;100438.91;;;15.78;72.01
60465;BME280;46314;52.392;9.758;2022-10-16T03:27:18;100442.69;;;15.52;73.16
60465;BME280;46314;52.392;9.758;2022-10-16T03:29:45;100432.88;;;15.88;71.47
60465;BME280;46314;52.392;9.758;2022-10-16T03:32:11;100430.25;;;16.04;71.62
60465;BME280;46314;52.392;9.758;2022-10-16T03:34:38;100440.09;;;15.68;72.45
60465;BME280;46314;52.392;9.758;2022-10-16T03:37:04;100424.69;;;15.83;72.07
60465;BME280;46314;52.392;9.758;2022-10-16T03:39:31;100426.47;;;15.87;72.23
60465;BME280;46314;52.392;9.758;2022-10-16T03:41:59;100435.34;;;15.89;71.69
60465;BME280;46314;52.392;9.758;2022-10-16T03:44:25;100437.59;;;15.75;72.60
60465;BME280;46314;52.392;9.758;2022-10-16T03:46:51;100435.88;;;15.62;72.96
60465;BME280;46314;52.392;9.758;2022-10-16T03:49:18;100429.59;;;15.44;73.57
60465;BME280;46314;52.392;9.758;2022-10-16T03:51:44;100423.59;;;15.54;73.27
60465;BME280;46314;52.392;9.758;2022-10-16T03:54:11;100442.84;;;15.56;73.20
60465;BME280;46314;52.392;9.758;2022-10-16T03:56:37;100436.09;;;15.57;72.74
60465;BME280;46314;52.392;9.758;2022-10-16T03:59:05;100427.06;;;15.72;72.48
60465;BME280;46314;52.392;9.758;2022-10-16T04:01:32;100433.81;;;15.29;73.46
60465;BME280;46314;52.392;9.758;2022-10-16T04:03:58;100438.91;;;15.78;72.63
60465;BME280;46314;52.392;9.758;2022-10-16T04:06:25;100433.22;;;15.65;72.49
60465;BME280;46314;52.392;9.758;2022-10-16T04:08:51;100434.66;;;15.71;72.13
60465;BME280;46314;52.392;9.758;2022-10-16T04:11:17;100433.13;;;15.53;72.72
60465;BME280;46314;52.392;9.758;2022-10-16T04:13:44;100444.69;;;15.73;71.99
60465;BME280;46314;52.392;9.758;2022-10-16T04:16:12;100452.94;;;15.48;73.35
60465;BME280;46314;52.392;9.758;2022-10-16T04:18:38;100456.22;;;15.50;73.58
60465;BME280;46314;52.392;9.758;2022-10-16T04:21:06;100464.69;;;15.83;72.22
60465;BME280;46314;52.392;9.758;2022-10-16T04:23:32;100465.53;;;15.54;73.29
60465;BME280;46314;52.392;9.758;2022-10-16T04:25:59;100459.34;;;15.69;73.03
60465;BME280;46314;52.392;9.758;2022-10-16T04:28:25;100455.94;;;15.64;72.71
60465;BME280;46314;52.392;9.758;2022-10-16T04:30:52;100454.22;;;15.50;72.75
60465;BME280;46314;52.392;9.758;2022-10-16T04:33:20;100461.31;;;15.48;73.29
60465;BME280;46314;52.392;9.758;2022-10-16T04:35:56;100471.94;;;15.55;73.35
60465;BME280;46314;52.392;9.758;2022-10-16T04:38:23;100478.88;;;15.78;72.22
60465;BME280;46314;52.392;9.758;2022-10-16T04:40:49;100476.59;;;15.50;73.78
60465;BME280;46314;52.392;9.758;2022-10-16T04:43:15;100465.47;;;15.42;73.90
60465;BME280;46314;52.392;9.758;2022-10-16T04:45:42;100464.09;;;15.27;74.53
60465;BME280;46314;52.392;9.758;2022-10-16T04:48:08;100457.00;;;15.29;74.66
60465;BME280;46314;52.392;9.758;2022-10-16T04:50:36;100461.53;;;15.43;73.47
60465;BME280;46314;52.392;9.758;2022-10-16T04:53:03;100458.50;;;14.97;75.30
60465;BME280;46314;52.392;9.758;2022-10-16T04:55:29;100475.97;;;15.15;75.20
60465;BME280;46314;52.392;9.758;2022-10-16T04:57:56;100475.25;;;15.57;73.51
60465;BME280;46314;52.392;9.758;2022-10-16T05:00:22;100469.28;;;15.58;73.25
60465;BME280;46314;52.392;9.758;2022-10-16T05:02:49;100468.03;;;15.26;74.82
60465;BME280;46314;52.392;9.758;2022-10-16T05:05:16;100483.19;;;15.67;73.73
60465;BME280;46314;52.392;9.758;2022-10-16T05:07:44;100479.44;;;15.12;75.43
60465;BME280;46314;52.392;9.758;2022-10-16T05:10:10;100484.41;;;14.68;76.85
60465;BME280;46314;52.392;9.758;2022-10-16T05:12:36;100478.63;;;15.11;76.31
60465;BME280;46314;52.392;9.758;2022-10-16T05:15:04;100491.88;;;15.23;75.71
60465;BME280;46314;52.392;9.758;2022-10-16T05:17:31;100489.47;;;15.13;75.56
60465;BME280;46314;52.392;9.758;2022-10-16T05:19:57;100491.09;;;15.14;76.34
60465;BME280;46314;52.392;9.758;2022-10-16T05:22:24;100495.63;;;15.27;76.05
60465;BME280;46314;52.392;9.758;2022-10-16T05:24:51;100492.53;;;15.50;75.46
60465;BME280;46314;52.392;9.758;2022-10-16T05:27:18;100498.06;;;15.59;75.09
60465;BME280;46314;52.392;9.758;2022-10-16T05:29:44;100506.75;;;15.36;75.64
60465;BME280;46314;52.392;9.758;2022-10-16T05:32:11;100500.50;;;15.39;75.62
60465;BME280;46314;52.392;9.758;2022-10-16T05:34:38;100513.31;;;15.40;75.78
60465;BME280;46314;52.392;9.758;2022-10-16T05:37:04;100520.19;;;15.73;73.88
60465;BME280;46314;52.392;9.758;2022-10-16T05:39:31;100515.75;;;15.71;73.53
60465;BME280;46314;52.392;9.758;2022-10-16T05:41:59;100511.72;;;15.30;76.33
60465;BME280;46314;52.392;9.758;2022-10-16T05:44:25;100514.28;;;15.44;75.50
60465;BME280;46314;52.392;9.758;2022-10-16T05:46:51;100520.09;;;15.90;73.54
60465;BME280;46314;52.392;9.758;2022-10-16T05:49:18;100505.34;;;15.51;75.06
60465;BME280;46314;52.392;9.758;2022-10-16T05:51:44;100502.13;;;15.40;75.33
60465;BME280;46314;52.392;9.758;2022-10-16T05:54:11;100511.81;;;15.73;74.13
60465;BME280;46314;52.392;9.758;2022-10-16T05:56:37;100520.97;;;15.52;74.76
60465;BME280;46314;52.392;9.758;2022-10-16T05:59:05;100511.72;;;15.60;74.71
60465;BME280;46314;52.392;9.758;2022-10-16T06:01:32;100519.81;;;15.74;73.84
60465;BME280;46314;52.392;9.758;2022-10-16T06:03:59;100519.22;;;15.68;73.95
60465;BME280;46314;52.392;9.758;2022-10-16T06:06:27;100528.78;;;15.67;74.79
60465;BME280;46314;52.392;9.758;2022-10-16T06:08:54;100516.53;;;15.21;76.28
60465;BME280;46314;52.392;9.758;2022-10-16T06:11:22;100511.16;;;15.07;76.17
60465;BME280;46314;52.392;9.758;2022-10-16T06:13:50;100527.44;;;15.44;75.99
60465;BME280;46314;52.392;9.758;2022-10-16T06:16:18;100532.41;;;15.00;77.43
60465;BME280;46314;52.392;9.758;2022-10-16T06:18:45;100529.47;;;15.34;75.57
60465;BME280;46314;52.392;9.758;2022-10-16T06:21:14;100534.38;;;14.99;77.11
60465;BME280;46314;52.392;9.758;2022-10-16T06:23:42;100536.03;;;15.30;75.86
60465;BME280;46314;52.392;9.758;2022-10-16T06:26:11;100549.63;;;15.10;76.96
60465;BME280;46314;52.392;9.758;2022-10-16T06:28:38;100553.81;;;15.34;76.05
60465;BME280;46314;52.392;9.758;2022-10-16T06:31:06;100555.03;;;15.15;75.84
60465;BME280;46314;52.392;9.758;2022-10-16T06:33:36;100557.59;;;15.59;74.76
60465;BME280;46314;52.392;9.758;2022-10-16T06:36:03;100557.94;;;15.58;74.23
60465;BME280;46314;52.392;9.758;2022-10-16T06:38:31;100549.94;;;15.47;75.68
60465;BME280;46314;52.392;9.758;2022-10-16T06:40:58;100556.16;;;16.04;73.00
60465;BME280;46314;52.392;9.758;2022-10-16T06:43:25;100567.41;;;15.95;73.24
60465;BME280;46314;52.392;9.758;2022-10-16T06:45:52;100564.97;;;15.94;72.50
60465;BME280;46314;52.392;9.758;2022-10-16T06:48:18;100570.50;;;15.81;73.06
60465;BME280;46314;52.392;9.758;2022-10-16T06:50:56;100575.06;;;16.07;72.09
60465;BME280;46314;52.392;9.758;2022-10-16T06:53:23;100572.72;;;15.88;72.81
60465;BME280;46314;52.392;9.758;2022-10-16T06:55:50;100573.38;;;15.64;73.79
60465;BME280;46314;52.392;9.758;2022-10-16T06:58:17;100580.25;;;15.96;74.12
60465;BME280;46314;52.392;9.758;2022-10-16T07:00:43;100583.41;;;16.16;72.78
60465;BME280;46314;52.392;9.758;2022-10-16T07:03:10;100575.00;;;16.16;72.67
60465;BME280;46314;52.392;9.758;2022-10-16T07:05:37;100576.31;;;16.18;71.74
60465;BME280;46314;52.392;9.758;2022-10-16T07:08:05;100572.19;;;16.16;71.68
60465;BME280;46314;52.392;9.758;2022-10-16T07:10:32;100579.09;;;16.39;71.93
60465;BME280;46314;52.392;9.758;2022-10-16T07:12:59;100584.25;;;16.50;71.39
60465;BME280;46314;52.392;9.758;2022-10-16T07:15:26;100587.72;;;16.68;70.90
60465;BME280;46314;52.392;9.758;2022-10-16T07:17:53;100594.09;;;16.56;69.94
60465;BME280;46314;52.392;9.758;2022-10-16T07:20:19;100604.19;;;17.15;69.49
60465;BME280;46314;52.392;9.758;2022-10-16T07:22:46;100603.78;;;15.95;71.47
60465;BME280;46314;52.392;9.758;2022-10-16T07:25:14;100605.38;;;16.26;71.33
60465;BME280;46314;52.392;9.758;2022-10-16T07:27:40;100614.19;;;16.37;70.56
60465;BME280;46314;52.392;9.758;2022-10-16T07:30:07;100603.25;;;15.72;73.22
60465;BME280;46314;52.392;9.758;2022-10-16T07:32:34;100601.81;;;15.96;72.50
60465;BME280;46314;52.392;9.758;2022-10-16T07:35:01;100613.50;;;15.98;72.84
60465;BME280;46314;52.392;9.758;2022-10-16T07:37:27;100617.78;;;16.16;72.04
60465;BME280;46314;52.392;9.758;2022-10-16T07:39:54;100632.75;;;16.41;71.03
60465;BME280;46314;52.392;9.758;2022-10-16T07:42:22;100623.94;;;16.09;71.14
60465;BME280;46314;52.392;9.758;2022-10-16T07:44:48;100624.47;;;16.03;72.92
60465;BME280;46314;52.392;9.758;2022-10-16T07:47:15;100640.22;;;16.92;70.16
60465;BME280;46314;52.392;9.758;2022-10-16T07:49:41;100651.69;;;16.99;68.48
60465;BME280;46314;52.392;9.758;2022-10-16T07:52:08;100649.25;;;16.97;68.92
60465;BME280;46314;52.392;9.758;2022-10-16T07:54:34;100653.16;;;16.63;69.13
60465;BME280;46314;52.392;9.758;2022-10-16T07:57:01;100648.75;;;17.53;65.85
60465;BME280;46314;52.392;9.758;2022-10-16T07:59:28;100658.13;;;17.45;66.11
60465;BME280;46314;52.392;9.758;2022-10-16T08:01:55;100658.94;;;17.46;66.13
60465;BME280;46314;52.392;9.758;2022-10-16T08:04:21;100658.34;;;16.94;67.18
60465;BME280;46314;52.392;9.758;2022-10-16T08:06:48;100663.75;;;17.82;64.36
60465;BME280;46314;52.392;9.758;2022-10-16T08:09:14;100661.75;;;17.83;63.89
60465;BME280;46314;52.392;9.758;2022-10-16T08:11:41;100678.63;;;17.95;64.56
60465;BME280;46314;52.392;9.758;2022-10-16T08:14:07;100675.25;;;18.02;64.48
60465;BME280;46314;52.392;9.758;2022-10-16T08:16:35;100680.50;;;18.03;63.62
60465;BME280;46314;52.392;9.758;2022-10-16T08:19:01;100687.63;;;18.01;64.58
60465;BME280;46314;52.392;9.758;2022-10-16T08:21:28;100688.91;;;18.15;63.89
60465;BME280;46314;52.392;9.758;2022-10-16T08:23:54;100684.75;;;17.51;64.40
60465;BME280;46314;52.392;9.758;2022-10-16T08:26:24;100691.09;;;17.85;64.52
60465;BME280;46314;52.392;9.758;2022-10-16T08:28:51;100689.38;;;17.22;66.63
60465;BME280;46314;52.392;9.758;2022-10-16T08:31:19;100693.19;;;17.64;65.10
60465;BME280;46314;52.392;9.758;2022-10-16T08:33:48;100698.94;;;17.79;64.69
60465;BME280;46314;52.392;9.758;2022-10-16T08:36:15;100702.72;;;17.26;65.70
60465;BME280;46314;52.392;9.758;2022-10-16T08:38:42;100702.84;;;17.29;66.41
60465;BME280;46314;52.392;9.758;2022-10-16T08:41:20;100706.59;;;17.46;65.11
60465;BME280;46314;52.392;9.758;2022-10-16T08:44:11;100704.34;;;17.27;65.64
60465;BME280;46314;52.392;9.758;2022-10-16T08:46:50;100708.38;;;16.83;66.57
60465;BME280;46314;52.392;9.758;2022-10-16T08:49:21;100708.69;;;16.82;68.36
60465;BME280;46314;52.392;9.758;2022-10-16T08:51:47;100718.91;;;17.20;66.75
60465;BME280;46314;52.392;9.758;2022-10-16T08:54:22;100721.69;;;17.53;64.78
60465;BME280;46314;52.392;9.758;2022-10-16T08:56:54;100721.47;;;17.58;64.42
60465;BME280;46314;52.392;9.758;2022-10-16T08:59:20;100729.91;;;17.71;64.40
60465;BME280;46314;52.392;9.758;2022-10-16T09:01:49;100724.78;;;17.85;63.74
60465;BME280;46314;52.392;9.758;2022-10-16T09:04:47;100723.06;;;17.93;63.04
60465;BME280;46314;52.392;9.758;2022-10-16T09:07:27;100728.28;;;17.70;64.37
60465;BME280;46314;52.392;9.758;2022-10-16T09:10:14;100733.66;;;17.63;64.19
60465;BME280;46314;52.392;9.758;2022-10-16T09:12:48;100731.78;;;17.67;63.28
60465;BME280;46314;52.392;9.758;2022-10-16T09:15:25;100734.00;;;17.73;63.07
60465;BME280;46314;52.392;9.758;2022-10-16T09:18:00;100738.16;;;18.01;62.57
60465;BME280;46314;52.392;9.758;2022-10-16T09:20:36;100734.13;;;17.65;64.09
60465;BME280;46314;52.392;9.758;2022-10-16T09:23:16;100741.56;;;17.60;63.74
60465;BME280;46314;52.392;9.758;2022-10-16T09:25:47;100746.72;;;17.71;63.93
60465;BME280;46314;52.392;9.758;2022-10-16T09:28:14;100754.16;;;17.88;61.88
60465;BME280;46314;52.392;9.758;2022-10-16T09:30:40;100755.94;;;17.47;63.01
60465;BME280;46314;52.392;9.758;2022-10-16T09:33:09;100761.19;;;17.94;62.53
60465;BME280;46314;52.392;9.758;2022-10-16T09:35:39;100762.50;;;18.09;61.73
60465;BME280;46314;52.392;9.758;2022-10-16T09:38:07;100773.66;;;17.84;61.96
60465;BME280;46314;52.392;9.758;2022-10-16T09:40:36;100772.78;;;18.29;60.90
60465;BME280;46314;52.392;9.758;2022-10-16T09:43:16;100761.28;;;17.97;61.62
60465;BME280;46314;52.392;9.758;2022-10-16T09:45:53;100763.88;;;18.03;61.84
60465;BME280;46314;52.392;9.758;2022-10-16T09:48:20;100767.75;;;17.98;61.83
60465;BME280;46314;52.392;9.758;2022-10-16T09:50:57;100770.31;;;17.91;62.12
60465;BME280;46314;52.392;9.758;2022-10-16T09:53:23;100764.09;;;18.10;61.72
60465;BME280;46314;52.392;9.758;2022-10-16T09:55:51;100787.88;;;18.49;59.59
60465;BME280;46314;52.392;9.758;2022-10-16T09:58:21;100782.38;;;18.53;59.17
60465;BME280;46314;52.392;9.758;2022-10-16T10:00:52;100777.06;;;18.76;58.64
60465;BME280;46314;52.392;9.758;2022-10-16T10:03:33;100791.09;;;18.76;58.28
60465;BME280;46314;52.392;9.758;2022-10-16T10:06:07;100794.94;;;19.08;57.63
60465;BME280;46314;52.392;9.758;2022-10-16T10:08:40;100786.34;;;19.45;56.52
60465;BME280;46314;52.392;9.758;2022-10-16T10:11:08;100793.94;;;19.45;56.68
60465;BME280;46314;52.392;9.758;2022-10-16T10:13:40;100792.13;;;19.37;56.06
60465;BME280;46314;52.392;9.758;2022-10-16T10:16:07;100793.50;;;19.15;56.08
60465;BME280;46314;52.392;9.758;2022-10-16T10:18:33;100795.66;;;19.05;55.87
60465;BME280;46314;52.392;9.758;2022-10-16T10:21:02;100801.84;;;19.39;55.93
60465;BME280;46314;52.392;9.758;2022-10-16T10:23:30;100812.03;;;19.44;55.59
60465;BME280;46314;52.392;9.758;2022-10-16T10:26:00;100812.22;;;19.23;55.97
60465;BME280;46314;52.392;9.758;2022-10-16T10:28:45;100804.50;;;19.20;54.99
60465;BME280;46314;52.392;9.758;2022-10-16T10:31:20;100812.50;;;19.05;55.28
60465;BME280;46314;52.392;9.758;2022-10-16T10:33:53;100814.06;;;19.31;54.20
60465;BME280;46314;52.392;9.758;2022-10-16T10:36:28;100814.66;;;18.96;54.54
60465;BME280;46314;52.392;9.758;2022-10-16T10:38:58;100814.09;;;19.47;54.05
60465;BME280;46314;52.392;9.758;2022-10-16T10:41:56;100821.28;;;19.44;54.04
60465;BME280;46314;52.392;9.758;2022-10-16T10:44:36;100824.75;;;19.82;53.12
60465;BME280;46314;52.392;9.758;2022-10-16T10:47:08;100828.84;;;19.56;53.67
60465;BME280;46314;52.392;9.758;2022-10-16T10:49:44;100825.84;;;19.21;53.95
60465;BME280;46314;52.392;9.758;2022-10-16T10:52:34;100837.59;;;19.67;53.15
60465;BME280;46314;52.392;9.758;2022-10-16T10:55:10;100831.94;;;19.10;54.43
60465;BME280;46314;52.392;9.758;2022-10-16T10:57:45;100827.00;;;19.76;52.44
60465;BME280;46314;52.392;9.758;2022-10-16T11:00:21;100816.91;;;20.03;52.13
60465;BME280;46314;52.392;9.758;2022-10-16T11:02:53;100818.16;;;19.62;52.79
60465;BME280;46314;52.392;9.758;2022-10-16T11:05:39;100832.44;;;19.00;54.02
60465;BME280;46314;52.392;9.758;2022-10-16T11:08:12;100834.22;;;19.33;53.23
60465;BME280;46314;52.392;9.758;2022-10-16T11:10:46;100832.47;;;19.57;52.84
60465;BME280;46314;52.392;9.758;2022-10-16T11:13:30;100834.03;;;19.54;52.20
60465;BME280;46314;52.392;9.758;2022-10-16T11:16:01;100820.72;;;19.67;51.55
60465;BME280;46314;52.392;9.758;2022-10-16T11:18:33;100831.25;;;19.01;53.22
60465;BME280;46314;52.392;9.758;2022-10-16T11:21:08;100833.03;;;19.34;53.16
60465;BME280;46314;52.392;9.758;2022-10-16T11:23:40;100835.88;;;19.22;52.75
60465;BME280;46314;52.392;9.758;2022-10-16T11:26:14;100832.53;;;19.44;52.47
60465;BME280;46314;52.392;9.758;2022-10-16T11:28:45;100834.59;;;19.32;52.96
60465;BME280;46314;52.392;9.758;2022-10-16T11:31:18;100843.28;;;19.83;51.86
60465;BME280;46314;52.392;9.758;2022-10-16T11:33:51;100840.38;;;19.51;52.03
60465;BME280;46314;52.392;9.758;2022-10-16T11:36:23;100840.72;;;19.49;52.51
60465;BME280;46314;52.392;9.758;2022-10-16T11:38:58;100850.22;;;19.45;51.80
60465;BME280;46314;52.392;9.758;2022-10-16T11:41:29;100842.78;;;19.65;51.55
60465;BME280;46314;52.392;9.758;2022-10-16T11:44:14;100846.19;;;19.58;51.54
60465;BME280;46314;52.392;9.758;2022-10-16T11:46:48;100846.16;;;19.42;52.01
60465;BME280;46314;52.392;9.758;2022-10-16T11:49:38;100852.00;;;19.78;51.45
60465;BME280;46314;52.392;9.758;2022-10-16T11:52:11;100844.53;;;19.57;52.72
60465;BME280;46314;52.392;9.758;2022-10-16T11:54:45;100845.13;;;19.22;53.24
60465;BME280;46314;52.392;9.758;2022-10-16T11:57:16;100853.09;;;19.61;52.24
60465;BME280;46314;52.392;9.758;2022-10-16T11:59:48;100849.75;;;19.71;52.42
60465;BME280;46314;52.392;9.758;2022-10-16T12:02:30;100849.63;;;19.52;52.59
60465;BME280;46314;52.392;9.758;2022-10-16T12:05:06;100856.69;;;20.18;50.99
60465;BME280;46314;52.392;9.758;2022-10-16T12:07:41;100873.94;;;20.16;50.77
60465;BME280;46314;52.392;9.758;2022-10-16T12:10:19;100859.69;;;20.09;50.77
60465;BME280;46314;52.392;9.758;2022-10-16T12:12:53;100871.94;;;20.17;50.70
60465;BME280;46314;52.392;9.758;2022-10-16T12:15:23;100877.53;;;19.73;50.57
60465;BME280;46314;52.392;9.758;2022-10-16T12:18:21;100871.53;;;19.86;50.67
60465;BME280;46314;52.392;9.758;2022-10-16T12:20:54;100879.28;;;19.90;50.95
60465;BME280;46314;52.392;9.758;2022-10-16T12:23:21;100876.53;;;19.65;51.64
60465;BME280;46314;52.392;9.758;2022-10-16T12:25:55;100866.09;;;19.65;50.69
60465;BME280;46314;52.392;9.758;2022-10-16T12:28:27;100875.63;;;19.89;49.74
60465;BME280;46314;52.392;9.758;2022-10-16T12:30:56;100864.69;;;19.31;51.21
60465;BME280;46314;52.392;9.758;2022-10-16T12:33:25;100868.59;;;19.55;50.88
60465;BME280;46314;52.392;9.758;2022-10-16T12:35:53;100872.47;;;20.07;49.59
60465;BME280;46314;52.392;9.758;2022-10-16T12:38:21;100874.22;;;20.43;48.50
60465;BME280;46314;52.392;9.758;2022-10-16T12:40:58;100873.41;;;20.11;48.83
60465;BME280;46314;52.392;9.758;2022-10-16T12:43:35;100879.75;;;20.23;48.99
60465;BME280;46314;52.392;9.758;2022-10-16T12:46:05;100881.50;;;20.44;48.81
60465;BME280;46314;52.392;9.758;2022-10-16T12:48:32;100883.13;;;20.29;49.07
60465;BME280;46314;52.392;9.758;2022-10-16T12:51:24;100889.19;;;20.15;48.81
60465;BME280;46314;52.392;9.758;2022-10-16T12:54:00;100888.94;;;20.20;48.77
60465;BME280;46314;52.392;9.758;2022-10-16T12:56:37;100887.41;;;20.23;48.45
60465;BME280;46314;52.392;9.758;2022-10-16T12:59:19;100897.97;;;19.98;48.94
60465;BME280;46314;52.392;9.758;2022-10-16T13:01:57;100893.84;;;20.39;49.07
60465;BME280;46314;52.392;9.758;2022-10-16T13:07:39;100904.25;;;20.51;48.65